Terminal Aerodrome Forecast
Issued by NWS Twin Cities, MN

Home | Current Version | Previous Version | Graphics & Text | Print | Product List | Glossary On
Versions: 1 2 3 4 5 6 7 8 9 10 11 12 13 14 15 16 17 18 19 20
000
FTUS43 KMPX 190526
TAFEAU
TAF
KEAU 190526Z 1906/2006 00000KT 1/4SM FG VV002
     FM191000 17003KT 2SM BR OVC008
     FM191800 17008KT 4SM BR FEW010
     FM200100 16003KT 2SM BR OVC007=

USA.gov is the U.S. government's official web portal to all federal, state and local government web resources and services.